Saint Pete Beach, Florida
Current Conditions -  °F | °C
As of 2:53 AM on Saturday 20 Dec 2014 (Local Time) from KSPG Reporting Station
Clear Clear  
Wind Chill: 62°   Ceiling: Unl
Heat Index: 62°   Visibility: 10mi
Dew Point: 55°   Wind: 5mph
Humidity: 78%   Direction: 140°SE
Pressure: 30.04"   Gusts: NA
Location:  27.7562°N, 82.7184°W
Report Text: KSPG 200753Z AUTO 14004KT 10SM CLR 17/13 A3004 RMK AO2 SLP172 T01670128
Loading
Personal Weather Stations






























Interactive Weather Map New forecast layout! Learn more

10-Day Weather Forecast

Advertisements
Track Severe Weather on mobile